Time;durP1;ratioP1;P1;durP2;ratioP2;P2;SDS_P1;SDS_P2;PMS_P1;PMS_P2;Temp;Humidity;BMP_temperature;BMP_pressure;BME280_temperature;BME280_humidity;BME280_pressure;Samples;Min_cycle;Max_cycle;Signal;HPM_P1;HPM_P2
2022/09/17 00:00:44;;;;;;;9.30;7.90;;;;;;;14.77;99.18;96326.18;109933;1249;69415;-66
2022/09/17 00:03:28;;;;;;;13.20;10.00;;;;;;;14.77;97.72;96325.30;110061;1249;68463;-66
2022/09/17 00:06:03;;;;;;;11.90;8.70;;;;;;;14.76;98.39;96322.60;109791;1249;58929;-65
2022/09/17 00:08:34;;;;;;;11.70;9.10;;;;;;;14.77;98.51;96322.34;109909;1249;59016;-64
2022/09/17 00:11:09;;;;;;;11.20;9.20;;;;;;;14.77;99.90;96323.21;109831;1249;70768;-66
2022/09/17 00:13:40;;;;;;;12.00;9.90;;;;;;;14.76;99.98;96320.85;109972;1248;68638;-65
2022/09/17 00:16:11;;;;;;;11.40;8.30;;;;;;;14.76;100.00;96322.63;109819;1249;68564;-66
2022/09/17 00:18:41;;;;;;;9.40;8.10;;;;;;;14.77;100.00;96321.31;109769;1249;58883;-65
2022/09/17 00:21:16;;;;;;;11.10;8.60;;;;;;;14.77;100.00;96320.79;109814;1249;59276;-66
2022/09/17 00:23:46;;;;;;;10.10;8.00;;;;;;;14.76;100.00;96321.61;109970;1249;70085;-64
2022/09/17 00:26:16;;;;;;;13.60;9.80;;;;;;;14.76;100.00;96320.38;109897;1249;69313;-67
2022/09/17 00:28:49;;;;;;;13.60;10.10;;;;;;;14.76;100.00;96314.42;109682;1249;68643;-64
2022/09/17 00:31:25;;;;;;;12.00;9.60;;;;;;;14.74;99.98;96307.71;109790;1249;58883;-65
2022/09/17 00:34:17;;;;;;;11.80;9.40;;;;;;;14.74;99.79;96307.28;109717;1249;58950;-63
2022/09/17 00:36:48;;;;;;;10.10;8.00;;;;;;;14.74;99.86;96308.82;109717;1249;70743;-64
2022/09/17 00:39:17;;;;;;;10.00;7.40;;;;;;;14.74;99.63;96304.77;109743;1249;69373;-65
2022/09/17 00:41:47;;;;;;;9.20;6.90;;;;;;;14.76;99.83;96305.34;109795;1249;67493;-66
2022/09/17 00:44:55;;;;;;;9.20;7.50;;;;;;;14.77;99.45;96298.00;109725;1249;58904;-71
2022/09/17 00:47:30;;;;;;;8.40;6.50;;;;;;;14.79;100.00;96288.31;109270;1257;58886;-66
2022/09/17 00:50:14;;;;;;;10.40;7.80;;;;;;;14.81;98.94;96280.45;109237;1257;69623;-65
2022/09/17 00:52:57;;;;;;;8.90;6.90;;;;;;;14.80;97.20;96273.16;109650;1249;68828;-65
2022/09/17 00:55:38;;;;;;;8.80;6.90;;;;;;;14.79;96.81;96272.23;109814;1248;69938;-64
2022/09/17 00:58:10;;;;;;;9.80;8.30;;;;;;;14.77;98.09;96276.33;109800;1249;58902;-65
2022/09/17 01:00:40;;;;;;;9.30;7.20;;;;;;;14.75;99.14;96277.98;109776;1249;58872;-65
2022/09/17 01:03:09;;;;;;;9.60;7.50;;;;;;;14.77;98.75;96280.30;109798;1249;69772;-64
2022/09/17 01:05:45;;;;;;;10.60;7.80;;;;;;;14.77;99.92;96286.75;109795;1249;69167;-64
2022/09/17 01:08:17;;;;;;;9.70;7.70;;;;;;;14.78;100.00;96285.77;109724;1249;68823;-65
2022/09/17 01:11:01;;;;;;;8.30;6.70;;;;;;;14.81;100.00;96282.84;109835;1249;58889;-67
2022/09/17 01:13:52;;;;;;;11.20;8.00;;;;;;;14.83;99.99;96280.35;109964;1248;58804;-64
2022/09/17 01:16:52;;;;;;;11.50;9.00;;;;;;;14.83;99.07;96274.03;109898;1248;70261;-67
2022/09/17 01:19:52;;;;;;;9.10;7.40;;;;;;;14.75;100.00;96277.65;109935;1249;69248;-65
2022/09/17 01:22:50;;;;;;;12.80;8.50;;;;;;;14.66;100.00;96278.66;109877;1250;69410;-67
2022/09/17 01:25:27;;;;;;;9.50;7.20;;;;;;;14.62;100.00;96285.02;110063;1249;58969;-66
2022/09/17 01:28:20;;;;;;;8.70;7.30;;;;;;;14.62;100.00;96286.80;109806;1248;59131;-65
2022/09/17 01:30:51;;;;;;;13.00;10.20;;;;;;;14.62;99.82;96290.84;109882;1248;70118;-65
2022/09/17 01:33:36;;;;;;;12.60;8.70;;;;;;;14.62;100.00;96290.15;109799;1249;69465;-65
2022/09/17 01:36:20;;;;;;;9.40;7.20;;;;;;;14.63;100.00;96288.92;109716;1248;69647;-65
2022/09/17 01:39:17;;;;;;;10.50;8.20;;;;;;;14.66;100.00;96288.99;109653;1249;58877;-64
2022/09/17 01:42:01;;;;;;;11.60;9.20;;;;;;;14.68;100.00;96286.52;109729;1248;58952;-65
2022/09/17 01:44:50;;;;;;;11.00;9.30;;;;;;;14.68;100.00;96287.97;110004;1249;70922;-65
2022/09/17 01:47:57;;;;;;;12.00;9.50;;;;;;;14.67;100.00;96291.40;110008;1248;69262;-65
2022/09/17 01:50:38;;;;;;;13.40;11.00;;;;;;;14.65;100.00;96284.42;109917;1248;68810;-65
2022/09/17 01:53:17;;;;;;;14.50;10.30;;;;;;;14.62;100.00;96279.59;109868;1248;58961;-66
2022/09/17 01:55:56;;;;;;;15.70;11.80;;;;;;;14.60;100.00;96279.42;107754;1249;2691318;-65
2022/09/17 01:58:45;;;;;;;16.30;12.80;;;;;;;14.58;100.00;96276.34;109943;1249;70879;-64
2022/09/17 02:01:24;;;;;;;17.80;14.20;;;;;;;14.56;100.00;96271.69;109796;1249;69441;-65
2022/09/17 02:04:08;;;;;;;15.60;11.90;;;;;;;14.54;100.00;96268.44;109696;1250;68656;-65
2022/09/17 02:06:59;;;;;;;18.20;13.90;;;;;;;14.51;100.00;96270.59;109775;1248;58910;-65
2022/09/17 02:09:46;;;;;;;13.00;10.40;;;;;;;14.48;100.00;96269.65;110083;1247;58881;-65
2022/09/17 02:12:33;;;;;;;11.70;9.00;;;;;;;14.45;100.00;96271.39;110064;1247;70776;-66
2022/09/17 02:15:17;;;;;;;12.10;10.50;;;;;;;14.44;100.00;96268.37;110063;1248;67593;-65
2022/09/17 02:17:58;;;;;;;10.30;8.20;;;;;;;14.40;100.00;96263.69;109988;1247;69413;-65
2022/09/17 02:20:37;;;;;;;11.30;8.30;;;;;;;14.36;100.00;96263.42;109709;1249;59283;-64
2022/09/17 02:23:14;;;;;;;9.70;6.80;;;;;;;14.33;100.00;96260.05;109688;1249;58876;-62
2022/09/17 02:26:01;;;;;;;9.40;7.60;;;;;;;14.30;100.00;96252.52;109704;1250;70702;-66
2022/09/17 02:28:48;;;;;;;9.90;7.00;;;;;;;14.26;100.00;96247.81;109750;1249;69503;-65
2022/09/17 02:31:18;;;;;;;8.50;6.30;;;;;;;14.23;100.00;96246.42;109791;1248;69480;-64
2022/09/17 02:33:52;;;;;;;7.90;6.40;;;;;;;14.20;100.00;96241.23;109741;1249;58991;-65
2022/09/17 02:36:23;;;;;;;9.20;6.20;;;;;;;14.17;100.00;96241.91;109808;1249;58876;-64
2022/09/17 02:39:03;;;;;;;8.70;6.80;;;;;;;14.16;100.00;96246.55;109940;1249;70549;-66
2022/09/17 02:42:16;;;;;;;9.00;6.00;;;;;;;14.15;100.00;96245.67;109814;1249;68629;-69
2022/09/17 02:45:30;;;;;;;10.50;8.80;;;;;;;14.14;100.00;96243.85;109920;1249;69482;-67
2022/09/17 02:48:26;;;;;;;10.60;8.30;;;;;;;14.13;100.00;96240.42;109992;1249;58875;-65
2022/09/17 02:51:17;;;;;;;13.20;7.80;;;;;;;14.13;100.00;96234.88;109806;1249;58883;-64
2022/09/17 02:54:00;;;;;;;10.20;8.20;;;;;;;14.10;100.00;96234.42;110003;1249;70805;-65
2022/09/17 02:56:53;;;;;;;12.40;6.80;;;;;;;14.09;100.00;96238.49;109700;1249;69374;-64
2022/09/17 02:59:26;;;;;;;8.10;6.30;;;;;;;14.08;100.00;96248.57;109699;1249;68953;-66
2022/09/17 03:01:56;;;;;;;8.80;6.60;;;;;;;14.07;100.00;96250.86;109816;1249;59018;-65
2022/09/17 03:04:28;;;;;;;8.70;6.30;;;;;;;14.07;100.00;96247.79;109646;1249;58833;-65
2022/09/17 03:06:59;;;;;;;7.60;6.20;;;;;;;14.08;100.00;96250.32;109932;1249;70011;-66
2022/09/17 03:09:29;;;;;;;7.30;6.40;;;;;;;14.06;100.00;96241.58;109847;1249;69976;-66
2022/09/17 03:12:01;;;;;;;9.90;7.40;;;;;;;14.05;100.00;96233.66;109710;1248;69409;-67
2022/09/17 03:14:32;;;;;;;8.00;6.20;;;;;;;14.02;100.00;96229.52;109959;1249;59290;-66
2022/09/17 03:17:05;;;;;;;9.20;6.80;;;;;;;13.99;100.00;96229.61;109866;1249;58878;-67
2022/09/17 03:19:35;;;;;;;7.40;6.10;;;;;;;13.97;100.00;96226.95;109828;1248;70724;-66
2022/09/17 03:22:06;;;;;;;7.90;6.20;;;;;;;13.94;100.00;96220.60;109817;1248;69317;-64
2022/09/17 03:24:36;;;;;;;8.30;5.70;;;;;;;13.91;100.00;96214.73;109819;1249;67799;-67
2022/09/17 03:27:07;;;;;;;6.30;5.00;;;;;;;13.87;99.94;96213.91;109951;1249;58951;-65
2022/09/17 03:29:37;;;;;;;7.20;5.40;;;;;;;13.83;99.79;96212.63;109787;1249;58861;-67
2022/09/17 03:32:08;;;;;;;6.30;4.30;;;;;;;13.79;99.48;96206.38;109879;1249;69954;-66
2022/09/17 03:34:40;;;;;;;6.20;4.60;;;;;;;13.75;99.16;96205.06;110006;1248;68489;-66
2022/09/17 03:37:12;;;;;;;5.60;4.50;;;;;;;13.72;99.25;96205.54;109982;1247;69475;-66
2022/09/17 03:39:43;;;;;;;4.30;3.50;;;;;;;13.70;99.11;96201.70;109947;1248;58970;-66
2022/09/17 03:42:15;;;;;;;6.70;4.80;;;;;;;13.70;99.54;96206.30;109860;1249;58877;-66
2022/09/17 03:44:50;;;;;;;6.00;4.90;;;;;;;13.67;99.98;96213.96;109887;1247;70703;-65
2022/09/17 03:47:20;;;;;;;6.90;5.10;;;;;;;13.65;100.00;96212.75;109984;1247;68801;-66
2022/09/17 03:49:51;;;;;;;5.00;3.80;;;;;;;13.63;100.00;96215.39;109931;1249;68563;-65
2022/09/17 03:52:20;;;;;;;5.90;4.40;;;;;;;13.62;100.00;96213.39;109899;1249;58885;-67
2022/09/17 03:54:50;;;;;;;7.30;4.60;;;;;;;13.60;100.00;96208.59;109800;1249;58954;-66
2022/09/17 03:57:23;;;;;;;5.60;4.50;;;;;;;13.54;100.00;96208.66;109765;1249;70637;-67
2022/09/17 03:59:55;;;;;;;7.60;5.10;;;;;;;13.52;100.00;96207.09;109830;1249;69734;-68
2022/09/17 04:02:25;;;;;;;6.50;5.10;;;;;;;13.52;100.00;96201.17;109853;1248;68569;-66
2022/09/17 04:04:55;;;;;;;6.20;4.30;;;;;;;13.51;99.98;96202.17;109804;1249;58963;-65
2022/09/17 04:07:24;;;;;;;6.00;4.20;;;;;;;13.51;100.00;96206.17;109829;1248;58913;-65
2022/09/17 04:09:54;;;;;;;6.10;4.80;;;;;;;13.51;100.00;96204.23;109855;1248;70771;-65
2022/09/17 04:12:23;;;;;;;5.90;4.40;;;;;;;13.50;100.00;96204.73;109807;1248;69235;-66
2022/09/17 04:14:52;;;;;;;5.40;4.70;;;;;;;13.49;100.00;96206.00;110105;1248;68605;-66
2022/09/17 04:17:24;;;;;;;5.60;4.00;;;;;;;13.46;100.00;96203.83;110161;1248;58874;-67
2022/09/17 04:19:57;;;;;;;5.60;4.00;;;;;;;13.44;100.00;96204.92;109938;1249;58900;-67
2022/09/17 04:22:27;;;;;;;7.10;4.60;;;;;;;13.44;100.00;96199.57;110061;1249;69004;-66
2022/09/17 04:24:57;;;;;;;7.40;5.30;;;;;;;13.40;100.00;96195.23;109754;1248;69592;-67
2022/09/17 04:27:26;;;;;;;9.20;6.50;;;;;;;13.38;100.00;96186.89;109769;1249;68617;-65
2022/09/17 04:29:56;;;;;;;;;;;;;;;13.39;100.00;96192.83;109781;1249;58904;-67
2022/09/17 04:32:26;;;;;;;7.70;5.30;;;;;;;13.39;100.00;96193.41;109802;1249;58848;-67
2022/09/17 04:34:56;;;;;;;6.70;5.20;;;;;;;13.39;100.00;96189.73;109837;1249;69951;-66
2022/09/17 04:37:26;;;;;;;7.30;5.40;;;;;;;13.39;100.00;96190.95;109742;1250;69803;-66
2022/09/17 04:39:55;;;;;;;7.70;5.70;;;;;;;13.38;100.00;96191.78;110050;1250;69504;-66
2022/09/17 04:42:25;;;;;;;6.80;6.00;;;;;;;13.39;99.94;96198.08;110164;1249;58916;-68
2022/09/17 04:44:55;;;;;;;6.70;4.90;;;;;;;13.41;100.00;96199.31;110066;1247;58950;-67
2022/09/17 04:47:26;;;;;;;7.00;5.50;;;;;;;13.43;99.90;96190.23;109723;1249;70966;-67
2022/09/17 04:49:57;;;;;;;9.10;6.00;;;;;;;13.45;100.00;96184.73;109894;1249;69167;-68
2022/09/17 04:52:48;;;;;;;8.00;5.00;;;;;;;13.46;100.00;96179.14;109798;1249;69454;-68
2022/09/17 04:55:26;;;;;;;6.80;5.50;;;;;;;13.47;100.00;96182.92;109834;1248;58902;-66
2022/09/17 04:57:55;;;;;;;8.30;5.60;;;;;;;13.50;99.92;96190.13;109805;1248;58875;-67
2022/09/17 05:00:27;;;;;;;6.80;4.70;;;;;;;13.53;99.40;96192.80;109788;1248;69769;-65
2022/09/17 05:02:57;;;;;;;7.30;5.50;;;;;;;13.56;98.99;96198.67;109802;1249;69390;-65
2022/09/17 05:05:26;;;;;;;8.00;5.20;;;;;;;13.58;99.13;96196.14;109731;1249;70095;-65
2022/09/17 05:07:55;;;;;;;7.30;5.30;;;;;;;13.61;99.40;96207.25;109850;1249;59114;-65
2022/09/17 05:10:26;;;;;;;7.40;5.30;;;;;;;13.63;98.80;96210.69;109941;1249;58872;-66
2022/09/17 05:12:56;;;;;;;8.00;5.80;;;;;;;13.64;98.61;96210.88;109976;1247;70128;-65
2022/09/17 05:15:27;;;;;;;7.30;5.30;;;;;;;13.65;98.28;96213.48;109834;1249;69721;-66
2022/09/17 05:17:57;;;;;;;6.60;5.30;;;;;;;13.62;97.32;96217.95;109748;1249;68867;-65
2022/09/17 05:20:26;;;;;;;5.90;5.00;;;;;;;13.58;96.78;96219.80;109799;1248;58943;-65
2022/09/17 05:22:55;;;;;;;6.40;5.00;;;;;;;13.54;97.03;96213.89;109703;1249;58886;-66
2022/09/17 05:25:24;;;;;;;6.40;5.00;;;;;;;13.52;96.58;96221.30;109887;1249;71191;-65
2022/09/17 05:27:55;;;;;;;6.50;4.90;;;;;;;13.51;96.32;96223.95;109873;1249;68237;-67
2022/09/17 05:30:26;;;;;;;7.20;5.30;;;;;;;13.51;96.28;96226.94;109954;1250;69419;-66
2022/09/17 05:33:04;;;;;;;7.80;4.50;;;;;;;13.53;95.73;96226.58;109947;1249;58929;-68
2022/09/17 05:35:35;;;;;;;6.00;4.80;;;;;;;13.53;95.50;96221.73;109876;1249;58956;-67
2022/09/17 05:38:08;;;;;;;6.00;4.40;;;;;;;13.53;95.40;96225.23;109975;1249;70809;-67
2022/09/17 05:40:39;;;;;;;6.40;4.30;;;;;;;13.49;95.91;96226.86;110037;1250;68662;-66
2022/09/17 05:43:12;;;;;;;5.80;4.60;;;;;;;13.49;96.14;96222.96;109887;1249;70045;-69
2022/09/17 05:45:41;;;;;;;5.70;4.00;;;;;;;13.51;96.13;96217.02;110249;1249;58953;-73
2022/09/17 05:48:12;;;;;;;;;;;;;;;13.45;95.73;96224.84;110233;1248;58875;-73
2022/09/17 05:50:44;;;;;;;6.30;4.10;;;;;;;13.44;95.51;96223.17;109897;1250;71186;-70
2022/09/17 05:53:15;;;;;;;5.50;3.60;;;;;;;13.40;94.95;96223.88;109874;1249;68994;-71
2022/09/17 05:55:47;;;;;;;5.20;3.70;;;;;;;13.29;94.67;96220.32;109821;1249;68672;-68
2022/09/17 05:58:19;;;;;;;4.60;3.50;;;;;;;13.22;95.41;96222.73;109954;1249;58951;-69
2022/09/17 06:00:50;;;;;;;5.40;3.70;;;;;;;13.10;96.25;96228.84;109585;1250;58914;-70
2022/09/17 06:03:23;;;;;;;5.70;3.80;;;;;;;13.05;96.82;96231.16;109761;1250;70648;-69
2022/09/17 06:05:57;;;;;;;5.70;4.00;;;;;;;13.03;97.30;96237.49;109889;1250;69383;-71
2022/09/17 06:08:27;;;;;;;4.90;3.00;;;;;;;13.02;96.51;96238.64;109811;1249;69435;-70
2022/09/17 06:11:05;;;;;;;5.60;3.50;;;;;;;12.98;97.42;96237.36;109708;1250;59372;-69
2022/09/17 06:13:34;;;;;;;5.00;3.50;;;;;;;12.98;97.32;96236.02;109857;1249;58969;-69
2022/09/17 06:16:03;;;;;;;4.80;3.60;;;;;;;12.96;97.92;96234.34;109939;1249;70782;-71
2022/09/17 06:18:32;;;;;;;6.80;4.40;;;;;;;12.94;97.09;96239.55;109819;1249;69818;-69
2022/09/17 06:21:04;;;;;;;5.10;4.00;;;;;;;12.87;98.11;96244.45;109744;1249;69213;-70
2022/09/17 06:23:36;;;;;;;5.40;3.80;;;;;;;12.86;97.86;96247.92;109834;1248;58918;-70
2022/09/17 06:26:05;;;;;;;5.30;3.50;;;;;;;12.83;97.99;96247.02;109797;1250;58951;-72
2022/09/17 06:28:35;;;;;;;6.40;3.40;;;;;;;12.82;97.99;96248.52;109904;1248;70256;-71
2022/09/17 06:31:11;;;;;;;6.80;3.80;;;;;;;12.79;98.09;96242.60;109757;1247;67541;-71
2022/09/17 06:33:40;;;;;;;5.00;3.90;;;;;;;12.74;97.87;96240.13;109764;1249;68469;-71
2022/09/17 06:36:11;;;;;;;5.30;3.70;;;;;;;12.72;97.85;96233.17;109721;1248;58954;-71
2022/09/17 06:38:44;;;;;;;5.10;3.90;;;;;;;12.74;98.55;96237.08;109728;1250;58885;-73
2022/09/17 06:41:15;;;;;;;7.30;4.10;;;;;;;12.76;99.04;96235.79;109749;1249;69973;-71
2022/09/17 06:43:47;;;;;;;6.10;3.80;;;;;;;12.82;99.42;96238.91;110014;1249;68972;-71
2022/09/17 06:46:17;;;;;;;4.70;3.20;;;;;;;12.87;99.37;96231.95;109664;1250;68664;-74
2022/09/17 06:48:50;;;;;;;4.80;3.70;;;;;;;12.91;99.11;96221.34;109927;1249;58875;-68
2022/09/17 06:51:23;;;;;;;5.70;4.20;;;;;;;12.97;99.29;96213.89;109940;1250;58894;-68
2022/09/17 06:53:52;;;;;;;5.70;4.60;;;;;;;13.05;99.11;96208.02;110002;1248;70567;-68
2022/09/17 06:56:22;;;;;;;6.30;4.70;;;;;;;13.10;98.34;96216.29;110090;1248;68665;-68
2022/09/17 06:58:53;;;;;;;5.10;3.70;;;;;;;13.11;97.91;96221.74;109950;1250;69488;-69
2022/09/17 07:01:23;;;;;;;5.40;4.10;;;;;;;13.17;97.87;96224.86;109930;1249;58915;-69
2022/09/17 07:03:53;;;;;;;5.30;4.10;;;;;;;13.19;97.47;96223.20;109787;1250;58866;-69
2022/09/17 07:06:23;;;;;;;5.50;4.30;;;;;;;13.17;97.33;96228.46;109831;1250;70127;-69
2022/09/17 07:08:52;;;;;;;5.30;3.80;;;;;;;13.19;97.16;96236.73;109945;1251;69624;-69
2022/09/17 07:11:22;;;;;;;;;;;;;;;13.21;96.56;96244.34;110078;1250;69436;-69
2022/09/17 07:13:57;;;;;;;5.30;3.70;;;;;;;13.19;96.01;96245.83;109896;1251;58963;-70
2022/09/17 07:16:34;;;;;;;5.70;3.90;;;;;;;13.19;96.64;96243.73;109894;1249;58853;-69
2022/09/17 07:19:08;;;;;;;5.60;4.40;;;;;;;13.20;96.73;96234.34;109973;1250;70520;-69
2022/09/17 07:21:48;;;;;;;5.70;4.20;;;;;;;13.26;96.20;96223.09;110026;1249;68691;-69
2022/09/17 07:24:17;;;;;;;6.00;4.50;;;;;;;13.32;96.67;96219.11;109783;1250;68724;-67
2022/09/17 07:26:45;;;;;;;5.40;4.60;;;;;;;13.38;97.09;96211.92;109860;1250;58885;-67
2022/09/17 07:29:14;;;;;;;6.80;5.30;;;;;;;13.43;96.45;96207.16;109924;1248;58802;-68
2022/09/17 07:31:46;;;;;;;6.80;5.30;;;;;;;13.47;97.10;96205.00;109866;1249;70802;-67
2022/09/17 07:34:15;;;;;;;6.90;5.70;;;;;;;13.49;96.52;96198.25;109812;1250;67573;-68
2022/09/17 07:36:45;;;;;;;7.20;5.50;;;;;;;13.53;96.12;96201.57;109798;1248;69793;-65
2022/09/17 07:39:14;;;;;;;7.40;5.70;;;;;;;13.56;95.49;96200.45;109850;1250;58970;-67
2022/09/17 07:41:42;;;;;;;6.50;5.30;;;;;;;13.57;95.73;96199.98;109803;1250;58947;-68
2022/09/17 07:44:11;;;;;;;6.50;4.60;;;;;;;13.59;95.49;96192.94;109827;1248;69839;-69
2022/09/17 07:46:39;;;;;;;7.20;5.20;;;;;;;13.61;95.63;96190.61;109698;1249;68862;-68
2022/09/17 07:49:08;;;;;;;5.70;4.90;;;;;;;13.63;95.56;96189.52;109657;1247;69517;-67
2022/09/17 07:51:37;;;;;;;6.10;5.00;;;;;;;13.66;95.37;96184.52;109878;1250;58869;-68
2022/09/17 07:54:08;;;;;;;8.90;6.10;;;;;;;13.65;95.02;96181.42;110059;1248;58921;-65
2022/09/17 07:56:38;;;;;;;6.40;5.30;;;;;;;13.59;95.19;96175.86;109936;1250;71190;-66
2022/09/17 07:59:08;;;;;;;7.80;6.00;;;;;;;13.57;94.74;96164.77;109985;1250;69227;-67
2022/09/17 08:01:37;;;;;;;8.60;5.40;;;;;;;13.50;95.08;96155.68;109727;1249;68839;-69
2022/09/17 08:04:06;;;;;;;7.20;5.70;;;;;;;13.41;95.32;96150.14;109743;1250;58883;-70
2022/09/17 08:06:37;;;;;;;7.30;5.20;;;;;;;13.36;95.43;96153.73;109927;1249;59001;-67
2022/09/17 08:09:06;;;;;;;8.70;6.20;;;;;;;13.29;95.33;96155.57;109884;1249;70531;-66
2022/09/17 08:11:35;;;;;;;7.30;5.40;;;;;;;13.24;95.25;96150.50;109919;1248;67450;-67
2022/09/17 08:14:24;;;;;;;6.60;5.30;;;;;;;13.18;94.49;96154.24;109914;1251;70106;-68
2022/09/17 08:16:57;;;;;;;5.10;4.20;;;;;;;13.11;94.51;96155.17;109774;1251;58874;-68
2022/09/17 08:19:28;;;;;;;6.50;4.80;;;;;;;13.04;94.34;96150.57;110106;1250;58887;-68
2022/09/17 08:21:57;;;;;;;7.70;5.50;;;;;;;13.00;94.35;96146.95;109941;1249;69927;-69
2022/09/17 08:24:27;;;;;;;;;;;;;;;12.92;95.20;96147.15;109821;1251;69478;-68
2022/09/17 08:26:59;;;;;;;6.10;4.40;;;;;;;12.84;95.66;96144.09;109920;1249;69352;-70
2022/09/17 08:29:30;;;;;;;6.60;4.80;;;;;;;12.75;95.94;96153.94;109873;1249;58882;-68
2022/09/17 08:32:03;;;;;;;6.60;4.20;;;;;;;12.73;95.62;96164.91;109921;1251;58926;-66
2022/09/17 08:34:32;;;;;;;7.10;4.80;;;;;;;12.70;95.81;96159.31;110096;1249;70542;-68
2022/09/17 08:37:02;;;;;;;6.90;5.40;;;;;;;12.69;96.57;96152.45;109887;1251;69783;-68
2022/09/17 08:39:31;;;;;;;7.40;4.90;;;;;;;12.64;96.95;96149.39;109829;1250;69269;-68
2022/09/17 08:42:17;;;;;;;8.40;5.80;;;;;;;12.64;97.36;96145.91;109980;1250;58872;-68
2022/09/17 08:44:47;;;;;;;7.50;5.20;;;;;;;12.62;97.97;96147.04;110244;1248;58854;-68
2022/09/17 08:47:29;;;;;;;6.00;4.20;;;;;;;12.60;98.34;96159.84;109828;1250;71319;-68
2022/09/17 08:50:02;;;;;;;;;;;;;;;12.55;97.76;96167.85;109951;1247;69462;-69
2022/09/17 08:52:49;;;;;;;5.90;4.50;;;;;;;12.56;98.99;96160.21;109733;1251;69285;-66
2022/09/17 08:55:33;;;;;;;6.60;5.20;;;;;;;12.60;98.21;96157.52;109822;1250;58972;-68
2022/09/17 08:58:30;;;;;;;8.20;5.50;;;;;;;12.58;97.13;96166.81;109741;1251;58937;-68
2022/09/17 09:01:20;;;;;;;8.80;7.00;;;;;;;12.54;97.21;96169.50;109806;1251;70700;-69
2022/09/17 09:03:55;;;;;;;9.80;6.70;;;;;;;12.40;97.87;96159.84;109989;1249;69175;-67
2022/09/17 09:06:28;;;;;;;8.40;5.60;;;;;;;12.32;99.09;96151.13;109820;1250;69179;-69
2022/09/17 09:09:12;;;;;;;11.50;8.60;;;;;;;12.32;100.00;96152.02;109738;1250;58883;-69
2022/09/17 09:11:43;;;;;;;7.90;6.30;;;;;;;12.39;100.00;96152.54;109862;1251;58887;-68
2022/09/17 09:14:21;;;;;;;;;;;;;;;12.44;100.00;96149.88;109767;1250;71323;-69
2022/09/17 09:16:51;;;;;;;13.20;9.40;;;;;;;12.54;100.00;96140.70;109761;1249;68670;-69
2022/09/17 09:19:25;;;;;;;12.90;9.20;;;;;;;12.60;100.00;96133.27;109807;1250;68634;-69
2022/09/17 09:22:29;;;;;;;12.50;9.60;;;;;;;12.60;100.00;96131.54;109831;1249;58957;-69
2022/09/17 09:25:25;;;;;;;11.80;8.90;;;;;;;12.67;100.00;96125.18;109737;1251;58919;-69
2022/09/17 09:28:10;;;;;;;12.10;8.80;;;;;;;12.79;100.00;96132.72;109708;1249;70717;-68
2022/09/17 09:31:02;;;;;;;12.90;8.90;;;;;;;12.82;99.91;96144.70;109703;1251;68708;-70
2022/09/17 09:33:37;;;;;;;10.00;8.20;;;;;;;12.80;100.00;96160.29;109766;1250;68506;-69
2022/09/17 09:36:15;;;;;;;13.20;9.30;;;;;;;12.70;100.00;96171.58;109829;1250;58905;-70
2022/09/17 09:39:01;;;;;;;12.60;10.20;;;;;;;12.72;100.00;96173.10;109736;1250;58874;-70
2022/09/17 09:41:48;;;;;;;13.80;10.80;;;;;;;12.71;100.00;96182.96;109710;1249;69499;-69
2022/09/17 09:44:17;;;;;;;10.90;8.60;;;;;;;12.70;100.00;96182.91;109782;1249;69348;-69
2022/09/17 09:46:58;;;;;;;15.40;11.80;;;;;;;12.68;100.00;96182.27;109823;1250;69547;-69
2022/09/17 09:49:35;;;;;;;14.40;10.80;;;;;;;12.73;100.00;96183.61;109813;1250;58937;-70
2022/09/17 09:52:18;;;;;;;15.80;12.40;;;;;;;12.77;100.00;96185.73;109774;1249;58858;-69
2022/09/17 09:55:36;;;;;;;15.60;10.90;;;;;;;12.85;100.00;96195.82;109835;1251;69981;-68
2022/09/17 09:58:16;;;;;;;13.10;9.50;;;;;;;12.77;100.00;96191.67;109535;1249;68472;-70
2022/09/17 10:00:48;;;;;;;12.90;8.80;;;;;;;12.83;100.00;96185.84;109922;1248;68619;-69
2022/09/17 10:03:22;;;;;;;9.80;6.90;;;;;;;12.92;100.00;96180.02;109994;1247;58812;-69
2022/09/17 10:06:10;;;;;;;7.70;5.50;;;;;;;12.88;99.99;96176.70;110008;1248;58908;-71
2022/09/17 10:08:41;;;;;;;7.50;6.30;;;;;;;12.98;99.87;96172.02;109955;1249;69776;-69
2022/09/17 10:11:11;;;;;;;7.80;6.40;;;;;;;13.01;98.99;96183.14;109874;1248;67633;-70
2022/09/17 10:13:41;;;;;;;7.90;6.40;;;;;;;12.97;98.39;96192.61;109813;1248;69250;-68
2022/09/17 10:16:16;;;;;;;7.60;5.10;;;;;;;12.90;98.07;96194.66;109901;1248;58928;-68
2022/09/17 10:19:10;;;;;;;6.70;4.80;;;;;;;12.99;98.24;96197.61;109891;1247;58910;-69
2022/09/17 10:21:41;;;;;;;6.90;5.60;;;;;;;13.03;96.20;96205.16;109894;1250;71429;-70
2022/09/17 10:24:24;;;;;;;6.50;4.90;;;;;;;12.99;95.37;96209.31;109978;1247;70120;-70
2022/09/17 10:27:16;;;;;;;6.40;5.60;;;;;;;13.12;96.34;96215.91;109815;1248;69585;-69
2022/09/17 10:29:48;;;;;;;7.60;5.00;;;;;;;13.09;96.80;96217.30;109805;1248;58887;-67
2022/09/17 10:32:21;;;;;;;8.50;5.80;;;;;;;13.14;96.79;96212.90;109919;1248;58848;-69
2022/09/17 10:35:04;;;;;;;7.00;5.80;;;;;;;13.17;96.45;96210.71;109978;1247;69913;-67
2022/09/17 10:37:53;;;;;;;10.00;7.20;;;;;;;13.19;96.08;96213.23;109985;1247;68691;-68
2022/09/17 10:40:28;;;;;;;7.70;6.50;;;;;;;13.22;96.34;96213.48;109780;1247;69245;-67
2022/09/17 10:43:13;;;;;;;8.60;7.10;;;;;;;13.32;95.76;96204.77;109815;1248;58973;-69
2022/09/17 10:45:52;;;;;;;10.50;6.80;;;;;;;13.48;95.84;96206.09;109895;1248;58890;-70
2022/09/17 10:48:21;;;;;;;9.00;7.40;;;;;;;13.65;95.29;96208.25;109875;1248;69910;-70
2022/09/17 10:50:55;;;;;;;9.20;6.40;;;;;;;13.75;94.54;96198.95;109913;1248;68579;-68
2022/09/17 10:53:26;;;;;;;8.30;6.00;;;;;;;13.79;92.13;96192.89;109801;1248;69972;-69
2022/09/17 10:56:20;;;;;;;8.40;6.70;;;;;;;13.87;91.96;96194.34;110010;1247;58907;-67
2022/09/17 10:59:15;;;;;;;7.80;6.00;;;;;;;14.08;91.43;96186.14;110000;1248;58919;-67
2022/09/17 11:02:19;;;;;;;8.00;6.10;;;;;;;14.28;90.15;96176.67;110050;1248;69757;-69
2022/09/17 11:05:02;;;;;;;8.60;5.90;;;;;;;14.67;88.39;96178.03;109830;1248;69216;-69
2022/09/17 11:07:48;;;;;;;8.60;6.00;;;;;;;15.05;88.07;96178.81;109967;1247;69595;-68
2022/09/17 11:10:29;;;;;;;6.60;6.00;;;;;;;15.39;86.96;96183.69;110616;1248;58923;-67
2022/09/17 11:13:20;;;;;;;6.90;5.10;;;;;;;15.61;85.42;96185.58;109811;1248;58961;-69
2022/09/17 11:16:14;;;;;;;5.70;4.60;;;;;;;15.75;82.93;96184.56;109831;1248;70922;-67
2022/09/17 11:19:07;;;;;;;6.00;4.60;;;;;;;15.78;82.63;96184.91;109729;1248;69458;-68
2022/09/17 11:21:49;;;;;;;6.90;5.90;;;;;;;15.70;81.75;96189.52;109735;1251;69834;-68
2022/09/17 11:24:33;;;;;;;6.70;5.70;;;;;;;15.56;80.85;96203.89;110087;1248;58955;-68
2022/09/17 11:27:10;;;;;;;4.30;3.60;;;;;;;15.48;80.29;96199.48;109876;1248;58890;-67
2022/09/17 11:29:57;;;;;;;6.20;4.20;;;;;;;15.68;81.36;96183.20;109908;1247;70750;-69
2022/09/17 11:32:53;;;;;;;5.60;4.80;;;;;;;15.99;80.55;96184.64;109837;1247;69536;-67
2022/09/17 11:35:22;;;;;;;6.40;4.60;;;;;;;16.22;78.28;96189.52;110048;1247;69862;-69
2022/09/17 11:37:58;;;;;;;5.60;4.40;;;;;;;16.44;80.39;96187.17;109871;1249;58945;-69
2022/09/17 11:40:45;;;;;;;5.10;3.60;;;;;;;16.57;80.29;96178.33;109807;1248;58939;-68
2022/09/17 11:43:20;;;;;;;5.30;4.60;;;;;;;16.63;78.82;96172.43;109836;1247;69907;-69
2022/09/17 11:46:06;;;;;;;5.30;4.60;;;;;;;16.62;75.97;96167.46;109885;1248;69199;-70
2022/09/17 11:48:45;;;;;;;6.40;4.40;;;;;;;16.62;78.21;96169.64;109945;1247;68517;-69
2022/09/17 11:51:39;;;;;;;7.40;4.70;;;;;;;16.60;79.12;96168.44;110042;1248;58946;-69
2022/09/17 11:54:35;;;;;;;8.60;6.30;;;;;;;16.51;79.47;96166.67;109887;1248;58889;-67
2022/09/17 11:57:14;;;;;;;6.50;4.80;;;;;;;16.36;78.40;96166.48;109721;1248;71423;-67
2022/09/17 12:00:07;;;;;;;5.50;4.60;;;;;;;16.31;78.68;96155.67;109772;1248;69866;-67
2022/09/17 12:03:05;;;;;;;;;;;;;;;16.32;77.61;96149.12;109822;1248;69218;-69
2022/09/17 12:05:42;;;;;;;5.30;4.70;;;;;;;16.51;78.52;96149.23;109806;1250;58839;-68